Time;durP1;ratioP1;P1;durP2;ratioP2;P2;SDS_P1;SDS_P2;PMS_P1;PMS_P2;Temp;Humidity;BMP_temperature;BMP_pressure;BME280_temperature;BME280_humidity;BME280_pressure;Samples;Min_cycle;Max_cycle;Signal;HPM_P1;HPM_P2
2022/05/17 00:03:45;;;;;;;10.60;5.80;;;;;;;9.89;65.81;100108.18;213804;1274;141160;-62
2022/05/17 00:08:48;;;;;;;12.50;6.80;;;;;;;9.94;65.78;100103.13;214627;1274;140180;-63
2022/05/17 00:13:51;;;;;;;9.10;6.40;;;;;;;9.90;65.99;100101.82;216004;1274;140997;-63
2022/05/17 00:18:54;;;;;;;8.70;5.10;;;;;;;9.82;66.53;100099.23;215507;1274;139631;-64
2022/05/17 00:23:57;;;;;;;9.80;5.50;;;;;;;9.70;66.65;100093.84;216062;1274;140352;-63
2022/05/17 00:29:02;;;;;;;13.90;5.00;;;;;;;9.59;66.72;100086.16;215869;1274;159857;-63
2022/05/17 00:34:05;;;;;;;10.10;5.50;;;;;;;9.57;67.20;100093.14;215977;1274;141370;-63
2022/05/17 00:39:09;;;;;;;12.10;6.10;;;;;;;9.61;67.10;100097.65;214793;1274;142026;-62
2022/05/17 00:49:45;;;;;;;9.00;5.80;;;;;;;9.75;67.50;100092.36;214249;1274;140906;-60
2022/05/17 00:54:51;;;;;;;22.40;7.10;;;;;;;9.73;67.21;100090.25;214127;1274;140830;-62
2022/05/17 01:00:01;;;;;;;11.90;6.40;;;;;;;9.74;67.84;100092.33;214033;1274;139869;-63
2022/05/17 01:05:05;;;;;;;5.60;4.70;;;;;;;9.73;68.19;100085.91;214019;1274;211237;-61
2022/05/17 01:10:10;;;;;;;8.20;4.90;;;;;;;9.63;67.98;100085.27;214343;1274;142062;-61
2022/05/17 01:15:12;;;;;;;12.40;7.30;;;;;;;9.52;68.19;100076.55;214149;1274;140095;-61
2022/05/17 01:20:15;;;;;;;9.80;5.70;;;;;;;9.52;68.15;100078.23;214751;1274;140398;-62
2022/05/17 01:25:17;;;;;;;18.40;7.60;;;;;;;9.56;68.50;100069.23;213612;1274;144099;-62
2022/05/17 01:30:23;;;;;;;11.10;6.20;;;;;;;9.64;68.32;100074.64;214513;1276;141815;-64
2022/05/17 01:35:27;;;;;;;10.20;6.30;;;;;;;9.73;68.48;100072.27;213604;1275;141022;-61
2022/05/17 01:40:30;;;;;;;7.90;6.00;;;;;;;9.79;68.70;100075.30;214202;1274;141613;-62
2022/05/17 01:45:33;;;;;;;9.20;5.20;;;;;;;9.82;68.61;100074.74;214272;1274;140984;-61
2022/05/17 01:50:36;;;;;;;12.20;7.20;;;;;;;9.81;68.73;100068.64;214383;1274;142515;-61
2022/05/17 01:55:40;;;;;;;8.10;6.20;;;;;;;9.81;68.77;100065.98;213418;1274;143078;-62
2022/05/17 02:00:45;;;;;;;10.80;5.90;;;;;;;9.77;68.64;100069.06;213448;1274;140654;-62
2022/05/17 02:05:48;;;;;;;9.50;6.60;;;;;;;9.73;68.80;100066.95;214555;1274;141121;-62
2022/05/17 02:10:50;;;;;;;6.00;5.10;;;;;;;9.71;68.87;100075.77;216002;1274;140542;-62
2022/05/17 02:15:53;;;;;;;9.00;6.50;;;;;;;9.76;68.91;100076.79;216066;1274;141218;-60
2022/05/17 02:20:55;;;;;;;7.90;6.90;;;;;;;9.82;69.08;100065.64;216020;1274;141847;-62
2022/05/17 02:25:58;;;;;;;7.20;5.50;;;;;;;9.85;68.97;100063.00;215168;1275;140988;-62
2022/05/17 02:31:02;;;;;;;7.40;4.80;;;;;;;9.85;69.07;100067.09;214003;1274;141204;-63
2022/05/17 02:36:07;;;;;;;6.30;4.50;;;;;;;9.81;68.97;100060.33;215013;1276;140498;-62
2022/05/17 02:41:10;;;;;;;4.20;3.80;;;;;;;9.68;68.81;100058.48;214454;1274;140591;-62
2022/05/17 02:46:13;;;;;;;5.70;4.30;;;;;;;9.56;69.13;100051.13;213427;1274;140808;-62
2022/05/17 02:51:19;;;;;;;7.50;4.40;;;;;;;9.53;69.45;100054.23;215002;1274;139446;-62
2022/05/17 02:56:23;;;;;;;6.70;3.70;;;;;;;9.61;69.68;100068.12;214215;1274;142256;-61
2022/05/17 03:01:26;;;;;;;3.00;2.70;;;;;;;9.65;69.48;100073.08;214915;1274;142195;-62
2022/05/17 03:06:30;;;;;;;6.20;3.50;;;;;;;9.70;69.52;100079.30;214793;1274;140690;-61
2022/05/17 03:11:33;;;;;;;4.70;3.10;;;;;;;9.80;69.62;100087.00;214056;1274;140345;-62
2022/05/17 03:16:37;;;;;;;5.90;3.10;;;;;;;9.91;69.27;100095.66;214631;1274;141600;-61
2022/05/17 03:21:41;;;;;;;3.90;2.00;;;;;;;9.96;68.84;100101.64;213496;1274;141746;-63
2022/05/17 03:26:45;;;;;;;4.00;3.10;;;;;;;10.01;68.59;100104.41;214019;1274;142306;-62
2022/05/17 03:31:51;;;;;;;4.00;3.40;;;;;;;10.10;67.56;100114.98;214101;1274;142100;-63
2022/05/17 03:36:54;;;;;;;7.10;3.50;;;;;;;10.24;67.28;100120.11;213509;1274;142484;-66
2022/05/17 03:41:57;;;;;;;5.00;3.20;;;;;;;10.32;67.05;100121.54;214147;1274;141116;-63
2022/05/17 03:47:01;;;;;;;5.60;4.30;;;;;;;10.40;66.88;100118.16;213995;1274;151389;-61
2022/05/17 03:52:06;;;;;;;7.30;4.70;;;;;;;10.50;66.21;100117.33;214382;1274;141486;-61
2022/05/17 03:57:10;;;;;;;6.20;4.40;;;;;;;10.62;65.47;100124.80;214858;1274;143244;-60
2022/05/17 04:02:20;;;;;;;6.40;4.10;;;;;;;10.74;65.19;100135.38;215065;1274;140857;-61
2022/05/17 04:07:23;;;;;;;10.90;5.60;;;;;;;10.89;64.92;100140.45;215045;1274;141267;-62
2022/05/17 04:12:27;;;;;;;8.00;4.80;;;;;;;11.04;64.47;100148.38;215353;1274;143599;-64
2022/05/17 04:17:30;;;;;;;5.80;4.20;;;;;;;11.18;64.01;100148.63;215664;1274;140255;-64
2022/05/17 04:22:33;;;;;;;8.50;4.70;;;;;;;11.32;63.36;100144.80;213020;1274;142176;-63
2022/05/17 04:27:37;;;;;;;4.40;3.70;;;;;;;11.50;62.94;100141.67;215079;1274;142151;-63
2022/05/17 04:32:40;;;;;;;5.70;3.80;;;;;;;11.70;62.31;100137.49;214791;1274;141228;-63
2022/05/17 04:37:43;;;;;;;9.50;4.30;;;;;;;11.88;61.85;100135.00;213155;1274;141262;-60
2022/05/17 04:42:50;;;;;;;5.90;4.20;;;;;;;12.26;61.35;100136.38;215389;1276;140534;-62
2022/05/17 04:47:53;;;;;;;8.70;4.20;;;;;;;12.65;60.42;100131.02;213906;1276;151304;-62
2022/05/17 04:52:56;;;;;;;5.30;3.30;;;;;;;13.10;59.54;100137.20;213679;1274;141018;-62
2022/05/17 04:57:59;;;;;;;8.50;3.90;;;;;;;13.69;58.25;100136.83;213986;1274;140916;-63
2022/05/17 05:03:02;;;;;;;4.30;3.30;;;;;;;14.35;57.57;100134.90;213268;1275;142149;-63
2022/05/17 05:08:08;;;;;;;9.60;3.90;;;;;;;14.78;56.31;100141.96;213810;1274;141115;-64
2022/05/17 05:13:21;;;;;;;5.50;3.10;;;;;;;15.54;54.98;100146.69;213635;1274;141639;-63
2022/05/17 05:18:23;;;;;;;2.30;2.10;;;;;;;17.05;52.57;100137.77;213585;1274;140766;-63
2022/05/17 05:23:27;;;;;;;13.90;3.30;;;;;;;18.55;50.75;100134.92;214357;1274;143764;-63
2022/05/17 05:28:32;;;;;;;8.50;4.00;;;;;;;19.58;49.16;100135.33;213398;1276;141987;-63
2022/05/17 05:33:36;;;;;;;3.90;3.00;;;;;;;20.45;47.31;100136.10;214313;1274;141155;-62
2022/05/17 05:38:39;;;;;;;5.00;2.40;;;;;;;21.05;45.80;100134.20;214871;1277;141786;-62
2022/05/17 05:43:43;;;;;;;4.00;2.70;;;;;;;21.55;44.76;100137.38;214487;1274;139995;-62
2022/05/17 05:48:47;;;;;;;6.00;2.30;;;;;;;21.63;44.05;100134.85;214570;1274;142028;-63
2022/05/17 05:53:50;;;;;;;6.50;2.80;;;;;;;21.38;43.47;100134.55;214835;1274;141701;-62
2022/05/17 05:58:53;;;;;;;4.30;2.40;;;;;;;20.97;42.75;100134.29;214838;1274;140962;-62
2022/05/17 06:03:57;;;;;;;3.60;2.40;;;;;;;20.45;42.39;100144.48;215852;1274;142525;-63
2022/05/17 06:09:00;;;;;;;3.10;2.10;;;;;;;19.79;42.44;100157.11;215917;1274;140312;-65
2022/05/17 06:14:04;;;;;;;10.10;2.90;;;;;;;19.21;42.75;100167.23;215517;1274;139911;-63
2022/05/17 06:19:08;;;;;;;3.50;2.10;;;;;;;18.81;42.85;100169.98;215081;1275;141365;-63
2022/05/17 06:24:12;;;;;;;1.90;1.60;;;;;;;18.68;43.40;100171.23;215236;1274;140885;-65
2022/05/17 06:29:15;;;;;;;3.00;2.40;;;;;;;18.52;42.94;100168.05;214743;1274;141061;-64
2022/05/17 06:34:20;;;;;;;3.70;2.90;;;;;;;18.40;43.46;100171.04;214989;1274;139800;-63
2022/05/17 06:39:23;;;;;;;4.30;3.40;;;;;;;18.42;43.24;100176.81;213681;1274;140242;-64
2022/05/17 06:44:28;;;;;;;2.60;2.40;;;;;;;18.33;42.96;100176.10;214265;1274;140086;-66
2022/05/17 06:49:32;;;;;;;4.80;2.40;;;;;;;18.40;43.29;100171.48;213488;1274;141374;-62
2022/05/17 06:54:35;;;;;;;4.60;2.00;;;;;;;18.61;43.13;100167.64;213178;1276;140910;-62
2022/05/17 06:59:40;;;;;;;2.10;1.90;;;;;;;18.76;42.86;100162.60;214010;1274;141181;-66
2022/05/17 07:04:44;;;;;;;2.10;2.00;;;;;;;18.85;42.52;100163.86;213886;1274;140317;-63
2022/05/17 07:13:07;;;;;;;3.10;2.50;;;;;;;18.91;42.51;100166.42;213749;1274;139710;-68
2022/05/17 07:15:12;;;;;;;7.40;1.90;;;;;;;18.76;42.06;100170.98;214202;1274;140440;-66
2022/05/17 07:20:16;;;;;;;4.60;2.00;;;;;;;18.62;41.77;100172.77;213355;1274;141237;-64
2022/05/17 07:25:19;;;;;;;1.90;1.50;;;;;;;18.49;41.69;100181.33;214252;1274;141335;-66
2022/05/17 07:30:23;;;;;;;5.60;2.30;;;;;;;18.37;41.22;100184.83;214772;1274;139905;-66
2022/05/17 07:35:26;;;;;;;3.90;2.30;;;;;;;18.37;41.48;100186.48;214420;1274;140292;-67
2022/05/17 07:40:30;;;;;;;7.80;2.10;;;;;;;18.35;41.60;100188.07;213525;1274;140186;-66
2022/05/17 07:45:33;;;;;;;4.40;2.30;;;;;;;18.26;41.60;100193.29;214772;1274;140712;-67
2022/05/17 07:50:36;;;;;;;2.10;1.80;;;;;;;18.27;42.08;100190.70;215262;1274;597796;-68
2022/05/17 07:55:40;;;;;;;5.40;2.20;;;;;;;18.42;42.07;100193.23;215467;1274;140329;-66
2022/05/17 08:00:44;;;;;;;11.10;2.70;;;;;;;18.59;41.98;100192.54;215993;1274;141380;-67
2022/05/17 08:05:47;;;;;;;4.50;1.70;;;;;;;18.92;42.62;100190.98;215704;1274;140667;-66
2022/05/17 08:10:51;;;;;;;2.80;2.00;;;;;;;19.21;42.32;100188.60;215903;1274;140849;-66
2022/05/17 08:15:54;;;;;;;6.90;2.50;;;;;;;19.39;41.92;100191.65;215510;1274;140244;-65
2022/05/17 08:20:57;;;;;;;1.90;1.60;;;;;;;19.53;41.56;100192.08;213306;1274;140919;-66
2022/05/17 08:31:31;;;;;;;3.80;2.20;;;;;;;19.28;41.31;100198.86;214478;1274;140612;-64
2022/05/17 08:36:34;;;;;;;4.90;1.90;;;;;;;19.39;41.14;100200.31;214102;1274;140553;-65
2022/05/17 08:41:44;;;;;;;9.60;2.00;;;;;;;19.52;40.87;100199.64;212862;1274;140680;-67
2022/05/17 08:47:00;;;;;;;6.80;2.40;;;;;;;19.72;40.82;100204.67;213611;1274;140501;-66
2022/05/17 08:52:27;;;;;;;5.20;1.20;;;;;;;20.00;40.28;100203.11;213916;1274;141260;-66
2022/05/17 08:57:45;;;;;;;5.10;1.60;;;;;;;20.15;40.01;100205.56;213799;1274;140406;-68
2022/05/17 09:02:53;;;;;;;7.30;1.90;;;;;;;20.28;39.56;100212.20;213771;1274;140302;-68
2022/05/17 09:08:11;;;;;;;2.80;1.60;;;;;;;20.55;39.78;100216.20;213630;1274;139966;-69
2022/05/17 09:13:33;;;;;;;2.00;1.20;;;;;;;20.87;38.85;100216.45;214446;1274;141490;-66
2022/05/17 09:18:57;;;;;;;2.00;1.50;;;;;;;21.12;38.65;100210.58;214377;1274;141268;-68
2022/05/17 09:24:25;;;;;;;4.10;2.00;;;;;;;21.43;38.15;100205.87;214522;1274;139878;-68
2022/05/17 09:29:40;;;;;;;1.90;1.40;;;;;;;21.66;37.50;100206.48;214974;1273;140022;-68
2022/05/17 09:34:45;;;;;;;3.60;2.10;;;;;;;21.89;37.45;100202.98;215508;1274;140340;-70
2022/05/17 09:39:51;;;;;;;2.90;1.90;;;;;;;22.08;37.15;100201.58;214655;1274;140050;-68
2022/05/17 09:44:56;;;;;;;6.00;1.70;;;;;;;22.17;36.56;100203.48;214358;1274;140835;-68
2022/05/17 09:55:25;;;;;;;10.30;1.80;;;;;;;21.64;36.01;100199.94;215893;1274;142165;-69
2022/05/17 10:00:43;;;;;;;3.00;1.40;;;;;;;21.46;36.29;100202.73;216255;1273;141784;-68
2022/05/17 10:06:05;;;;;;;6.80;1.80;;;;;;;21.53;36.39;100200.22;213729;1274;140113;-68
2022/05/17 10:11:21;;;;;;;1.10;1.10;;;;;;;21.80;35.60;100208.73;213905;1274;206740;-69
2022/05/17 10:16:33;;;;;;;4.10;1.30;;;;;;;21.90;35.23;100202.05;213785;1274;140701;-68
2022/05/17 10:21:52;;;;;;;3.00;1.50;;;;;;;22.06;34.91;100203.78;214557;1274;140364;-67
2022/05/17 10:27:10;;;;;;;1.90;1.10;;;;;;;22.12;34.27;100197.38;215340;1274;151534;-68
2022/05/17 10:32:23;;;;;;;6.50;0.80;;;;;;;22.36;34.11;100198.34;214343;1274;141876;-69
2022/05/17 10:37:56;;;;;;;3.40;0.80;;;;;;;22.26;33.37;100201.25;213269;1274;140971;-68
2022/05/17 10:43:02;;;;;;;2.70;1.30;;;;;;;22.10;33.34;100202.30;214524;1274;142036;-69
2022/05/17 10:48:18;;;;;;;2.60;1.30;;;;;;;22.17;33.07;100203.80;213941;1274;142246;-69
2022/05/17 10:53:50;;;;;;;2.40;0.90;;;;;;;22.24;32.55;100202.65;213823;1274;230492;-69
2022/05/17 10:59:26;;;;;;;4.60;1.40;;;;;;;22.37;32.79;100204.45;213491;1274;141990;-66
2022/05/17 11:05:01;;;;;;;0.90;0.90;;;;;;;22.46;32.42;100208.35;213754;1274;141746;-68
2022/05/17 11:10:30;;;;;;;2.20;1.20;;;;;;;22.44;32.25;100207.80;214565;1274;140723;-67
2022/05/17 11:15:38;;;;;;;1.00;0.90;;;;;;;22.65;32.35;100203.48;213456;1275;140216;-67
2022/05/17 11:20:54;;;;;;;1.90;1.00;;;;;;;22.91;31.51;100201.98;214048;1275;141388;-67
2022/05/17 11:26:43;;;;;;;1.20;0.90;;;;;;;22.72;31.21;100203.00;213932;1274;140575;-67
2022/05/17 11:32:00;;;;;;;2.50;1.30;;;;;;;22.57;31.56;100200.77;212942;1274;141544;-66
2022/05/17 11:37:08;;;;;;;1.10;1.00;;;;;;;22.70;32.14;100202.27;213919;1274;141209;-66
2022/05/17 11:42:31;;;;;;;3.80;1.20;;;;;;;22.96;32.15;100198.20;215032;1273;140753;-68
2022/05/17 11:47:48;;;;;;;1.30;1.10;;;;;;;22.94;31.60;100198.20;213040;1274;141908;-65
2022/05/17 11:53:23;;;;;;;1.10;1.00;;;;;;;23.04;31.39;100198.95;213870;1274;141250;-61
2022/05/17 11:58:28;;;;;;;1.00;0.80;;;;;;;22.99;31.47;100199.92;216089;1274;140212;-61
2022/05/17 12:03:53;;;;;;;3.30;1.10;;;;;;;22.99;31.23;100196.77;216027;1274;140767;-61
2022/05/17 12:08:55;;;;;;;0.90;0.90;;;;;;;22.95;30.91;100195.39;215981;1274;141085;-62
2022/05/17 12:14:13;;;;;;;1.00;0.70;;;;;;;22.82;31.18;100192.80;215833;1274;140663;-62
2022/05/17 12:19:24;;;;;;;1.80;0.80;;;;;;;22.47;30.59;100192.63;214234;1274;140076;-60
2022/05/17 12:24:52;;;;;;;1.70;1.00;;;;;;;22.22;30.83;100188.13;214677;1274;140325;-61
2022/05/17 12:35:37;;;;;;;1.40;0.70;;;;;;;22.18;31.16;100189.51;215116;1274;139829;-62
2022/05/17 12:46:21;;;;;;;3.50;1.20;;;;;;;22.22;30.85;100190.19;214295;1274;141115;-62
2022/05/17 12:51:25;;;;;;;2.20;0.80;;;;;;;21.89;30.71;100194.14;213014;1274;140278;-64
2022/05/17 12:56:33;;;;;;;1.10;0.80;;;;;;;21.89;31.35;100193.12;214088;1274;140657;-63
2022/05/17 13:02:01;;;;;;;4.60;0.80;;;;;;;21.97;31.45;100192.27;213227;1274;139778;-65
2022/05/17 13:07:13;;;;;;;2.60;0.80;;;;;;;21.86;31.40;100192.34;213277;1274;140514;-66
2022/05/17 13:12:16;;;;;;;1.20;0.70;;;;;;;21.52;31.01;100194.02;215249;1274;140976;-64
2022/05/17 13:17:25;;;;;;;1.40;0.60;;;;;;;21.35;31.76;100191.19;213356;1274;142206;-63
2022/05/17 13:22:28;;;;;;;1.50;0.80;;;;;;;21.25;32.16;100191.66;213925;1274;139926;-65
2022/05/17 13:27:42;;;;;;;1.90;0.50;;;;;;;21.07;31.93;100199.86;213437;1274;141134;-63
2022/05/17 13:32:47;;;;;;;8.40;0.80;;;;;;;20.99;32.01;100195.86;213241;1274;140129;-65
2022/05/17 13:38:00;;;;;;;1.40;0.70;;;;;;;20.95;32.45;100197.16;213510;1275;141007;-64
2022/05/17 13:43:18;;;;;;;0.50;0.50;;;;;;;20.80;32.28;100209.77;214947;1274;139852;-62
2022/05/17 13:48:23;;;;;;;1.40;0.70;;;;;;;20.61;31.80;100216.73;214980;1274;139904;-63
2022/05/17 13:53:32;;;;;;;0.90;0.30;;;;;;;20.49;31.86;100212.98;215901;1274;140853;-64
2022/05/17 13:58:37;;;;;;;100.60;10.80;;;;;;;20.53;32.34;100208.80;215830;1274;141527;-64
2022/05/17 14:03:42;;;;;;;0.90;0.60;;;;;;;20.54;31.80;100215.95;215879;1274;140379;-64
2022/05/17 14:14:22;;;;;;;0.50;0.50;;;;;;;20.73;32.01;100216.37;215687;1274;142128;-63
2022/05/17 14:19:27;;;;;;;1.30;0.70;;;;;;;20.70;31.72;100216.24;213881;1274;140278;-64
2022/05/17 14:24:30;;;;;;;0.90;0.90;;;;;;;20.61;32.18;100216.94;213863;1274;139934;-64
2022/05/17 14:29:34;;;;;;;0.70;0.70;;;;;;;20.53;32.27;100222.02;214810;1276;140701;-63
2022/05/17 14:34:40;;;;;;;8.70;1.30;;;;;;;20.30;32.17;100220.30;214807;1274;140849;-62
2022/05/17 14:39:43;;;;;;;1.10;0.50;;;;;;;20.11;32.49;100223.42;214560;1274;140759;-63
2022/05/17 14:44:47;;;;;;;0.90;0.60;;;;;;;19.91;32.40;100230.59;213652;1274;140421;-63
2022/05/17 14:50:00;;;;;;;1.40;0.80;;;;;;;19.87;32.76;100231.88;214467;1274;140716;-63
2022/05/17 14:55:03;;;;;;;2.10;1.10;;;;;;;19.98;32.57;100229.83;214480;1274;140137;-63
2022/05/17 15:00:15;;;;;;;3.50;1.70;;;;;;;19.92;32.69;100232.90;213832;1274;141456;-62
2022/05/17 15:05:19;;;;;;;1.70;1.40;;;;;;;19.66;32.29;100237.72;213403;1274;140774;-62
2022/05/17 15:10:28;;;;;;;2.80;1.40;;;;;;;19.46;32.15;100239.58;213713;1274;141785;-63
2022/05/17 15:15:34;;;;;;;1.80;0.80;;;;;;;19.33;32.36;100239.59;213824;1274;140412;-61
2022/05/17 15:20:39;;;;;;;2.30;1.50;;;;;;;19.29;32.73;100236.48;214582;1274;140687;-60
2022/05/17 15:25:42;;;;;;;1.70;1.60;;;;;;;19.28;32.48;100238.71;212995;1275;140608;-62
2022/05/17 15:30:46;;;;;;;5.00;2.30;;;;;;;19.15;32.71;100233.23;213643;1274;140326;-62
2022/05/17 15:35:57;;;;;;;2.20;1.40;;;;;;;18.92;32.99;100232.91;212939;1275;140934;-63
2022/05/17 15:41:00;;;;;;;6.20;3.80;;;;;;;18.79;33.17;100233.02;214830;1274;140121;-62
2022/05/17 15:46:07;;;;;;;11.10;6.30;;;;;;;18.82;33.24;100231.94;214886;1274;140341;-62
2022/05/17 15:56:33;;;;;;;6.20;1.10;;;;;;;19.00;33.49;100218.60;214933;1276;140531;-63
2022/05/17 16:01:50;;;;;;;5.30;0.80;;;;;;;19.01;33.34;100216.92;215941;1274;140161;-64
2022/05/17 16:06:54;;;;;;;0.50;0.40;;;;;;;18.91;32.85;100215.05;215950;1274;140042;-63
2022/05/17 16:11:57;;;;;;;0.60;0.50;;;;;;;18.90;33.03;100214.13;215972;1274;141003;-63
2022/05/17 16:17:01;;;;;;;0.70;0.70;;;;;;;18.81;32.72;100219.89;215743;1274;140685;-63
2022/05/17 16:22:08;;;;;;;2.30;0.70;;;;;;;18.69;32.73;100217.88;214565;1274;141015;-62
2022/05/17 16:27:13;;;;;;;0.60;0.60;;;;;;;18.62;32.69;100217.88;214405;1274;141891;-63
2022/05/17 16:32:16;;;;;;;0.80;0.80;;;;;;;18.57;32.90;100212.84;214166;1274;139818;-63
2022/05/17 16:37:18;;;;;;;2.10;0.90;;;;;;;18.41;32.81;100217.52;214764;1274;141500;-64
2022/05/17 16:42:22;;;;;;;0.90;0.60;;;;;;;18.17;32.71;100220.98;214865;1274;140293;-62
2022/05/17 16:47:25;;;;;;;6.60;1.00;;;;;;;18.01;32.83;100221.27;213244;1274;140496;-65
2022/05/17 16:52:29;;;;;;;0.70;0.70;;;;;;;17.88;32.89;100233.54;213036;1274;139997;-62
2022/05/17 16:57:32;;;;;;;1.70;0.80;;;;;;;17.76;33.34;100232.90;214303;1274;139802;-63
2022/05/17 17:02:36;;;;;;;2.00;1.00;;;;;;;17.62;33.32;100235.95;214055;1274;139779;-63
2022/05/17 17:07:39;;;;;;;1.90;1.30;;;;;;;17.50;33.46;100237.53;213753;1274;139898;-63
2022/05/17 17:12:42;;;;;;;0.80;0.60;;;;;;;17.38;33.71;100247.34;213619;1274;139951;-65
2022/05/17 17:17:46;;;;;;;8.70;1.40;;;;;;;17.26;33.68;100253.19;214794;1274;139988;-64
2022/05/17 17:22:50;;;;;;;1.10;1.00;;;;;;;17.07;33.89;100264.71;214135;1274;141770;-63
2022/05/17 17:28:00;;;;;;;0.70;0.70;;;;;;;16.85;34.12;100277.34;214918;1274;140005;-66
2022/05/17 17:38:30;;;;;;;1.60;1.00;;;;;;;16.45;34.60;100295.40;215257;1274;141424;-66
2022/05/17 17:43:33;;;;;;;0.70;0.70;;;;;;;16.25;34.90;100306.46;215393;1274;141635;-64
2022/05/17 17:48:37;;;;;;;1.10;0.50;;;;;;;16.10;35.35;100310.61;213978;1275;140301;-63
2022/05/17 17:53:44;;;;;;;1.10;1.00;;;;;;;15.97;35.74;100318.33;215805;1274;141012;-64
2022/05/17 17:58:47;;;;;;;3.70;1.40;;;;;;;15.83;36.03;100322.85;215857;1274;141384;-64
2022/05/17 18:03:50;;;;;;;1.40;1.00;;;;;;;15.68;36.26;100334.25;215786;1274;140525;-64
2022/05/17 18:08:54;;;;;;;3.80;1.30;;;;;;;15.50;36.42;100338.94;215040;1275;144146;-65
2022/05/17 18:13:57;;;;;;;8.00;1.20;;;;;;;15.32;36.68;100349.73;214321;1274;141693;-64
2022/05/17 18:19:04;;;;;;;1.10;1.10;;;;;;;15.15;37.02;100357.42;215554;1274;141072;-64
2022/05/17 18:24:08;;;;;;;1.80;1.00;;;;;;;14.96;37.20;100368.47;214106;1274;141067;-65
2022/05/17 18:29:25;;;;;;;1.70;0.60;;;;;;;14.76;37.25;100379.33;213837;1274;143269;-62
2022/05/17 18:39:53;;;;;;;1.20;0.50;;;;;;;14.34;37.49;100394.27;213561;1274;141868;-63
2022/05/17 18:44:58;;;;;;;2.90;0.70;;;;;;;14.15;37.31;100403.66;213934;1274;141099;-63
2022/05/17 18:50:07;;;;;;;1.40;0.50;;;;;;;13.97;37.14;100413.16;213394;1274;141939;-63
2022/05/17 18:55:24;;;;;;;1.90;1.10;;;;;;;13.78;37.29;100427.86;213866;1274;142683;-64
2022/05/17 19:00:34;;;;;;;1.60;0.60;;;;;;;13.59;37.08;100439.48;213284;1274;140983;-65
2022/05/17 19:05:41;;;;;;;1.10;0.70;;;;;;;13.40;37.24;100449.17;214518;1274;142073;-65
2022/05/17 19:16:09;;;;;;;1.10;0.90;;;;;;;13.06;37.25;100462.96;215365;1274;138367;-63
2022/05/17 19:21:22;;;;;;;1.40;0.90;;;;;;;12.96;37.35;100472.89;213240;1274;151792;-66
2022/05/17 19:26:28;;;;;;;1.60;0.90;;;;;;;12.84;37.57;100477.70;214194;1274;140997;-63
2022/05/17 19:31:34;;;;;;;2.90;1.00;;;;;;;12.70;37.34;100485.55;213953;1274;141369;-62
2022/05/17 19:42:12;;;;;;;2.10;1.30;;;;;;;12.39;38.14;100502.69;214267;1274;142604;-63
2022/05/17 19:47:19;;;;;;;1.00;0.80;;;;;;;12.24;37.97;100514.58;213114;1274;963523;-64
2022/05/17 19:52:23;;;;;;;1.70;1.30;;;;;;;12.08;38.10;100517.46;216072;1274;140777;-65
2022/05/17 19:57:26;;;;;;;1.80;1.00;;;;;;;11.95;38.15;100526.17;216073;1274;140325;-65
2022/05/17 20:02:37;;;;;;;4.60;1.10;;;;;;;11.84;38.06;100535.70;215814;1274;139946;-66
2022/05/17 20:07:40;;;;;;;11.40;1.60;;;;;;;11.74;38.14;100543.66;215958;1274;139772;-64
2022/05/17 20:12:48;;;;;;;1.20;0.90;;;;;;;11.66;38.40;100546.13;214800;1274;140174;-62
2022/05/17 20:17:54;;;;;;;3.10;0.90;;;;;;;11.56;38.36;100553.06;215646;1274;141315;-65
2022/05/17 20:23:04;;;;;;;0.70;0.70;;;;;;;11.44;38.89;100552.84;214230;1274;140081;-64
2022/05/17 20:28:09;;;;;;;1.40;1.30;;;;;;;11.29;38.88;100562.14;215309;1274;142194;-66
2022/05/17 20:33:14;;;;;;;1.60;0.70;;;;;;;11.14;39.11;100566.10;213351;1274;140161;-63
2022/05/17 20:38:17;;;;;;;4.30;1.30;;;;;;;11.04;39.34;100575.23;213488;1274;140032;-63
2022/05/17 20:43:26;;;;;;;2.20;1.00;;;;;;;10.94;39.49;100580.09;214587;1274;141049;-64
2022/05/17 20:48:30;;;;;;;3.00;1.60;;;;;;;10.83;39.81;100586.73;213618;1274;221410;-64
2022/05/17 20:53:34;;;;;;;1.30;1.10;;;;;;;10.67;40.24;100589.61;214040;1274;139511;-64
2022/05/17 20:58:38;;;;;;;5.20;1.80;;;;;;;10.51;40.41;100597.62;213728;1274;139900;-63
2022/05/17 21:03:41;;;;;;;0.70;0.70;;;;;;;10.36;41.03;100605.44;213848;1274;141952;-63
2022/05/17 21:08:49;;;;;;;1.70;1.00;;;;;;;10.19;41.31;100611.20;213226;1274;140199;-63
2022/05/17 21:13:53;;;;;;;1.20;0.90;;;;;;;10.04;41.76;100616.80;213879;1274;141488;-64
2022/05/17 21:19:02;;;;;;;0.80;0.70;;;;;;;9.90;41.80;100621.84;214394;1274;139876;-64
2022/05/17 21:24:06;;;;;;;2.70;0.80;;;;;;;9.74;42.31;100628.30;214481;1274;140304;-64
2022/05/17 21:29:09;;;;;;;1.30;1.00;;;;;;;9.62;42.21;100632.46;214693;1274;139997;-64
2022/05/17 21:34:13;;;;;;;4.00;1.80;;;;;;;9.50;42.72;100638.08;214696;1274;139825;-63
2022/05/17 21:39:40;;;;;;;1.10;0.80;;;;;;;9.38;43.44;100644.77;213735;1274;140437;-61
2022/05/17 21:44:44;;;;;;;0.80;0.70;;;;;;;9.24;43.40;100652.73;213980;1274;140931;-62
2022/05/17 21:49:47;;;;;;;1.20;1.10;;;;;;;9.11;44.10;100656.98;214752;1274;140671;-63
2022/05/17 21:54:49;;;;;;;3.90;1.60;;;;;;;8.97;44.16;100662.43;216127;1274;141495;-64
2022/05/17 22:00:26;;;;;;;2.20;1.00;;;;;;;8.86;44.40;100666.13;216082;1274;140304;-62
2022/05/17 22:05:32;;;;;;;2.40;1.70;;;;;;;8.75;44.94;100674.45;215926;1274;140228;-62
2022/05/17 22:16:02;;;;;;;6.40;1.70;;;;;;;8.55;45.28;100686.60;213985;1274;139950;-62
2022/05/17 22:21:05;;;;;;;2.60;1.50;;;;;;;8.44;45.58;100694.08;214056;1274;140089;-62
2022/05/17 22:26:10;;;;;;;2.50;2.00;;;;;;;8.34;45.60;100698.70;214136;1274;139828;-63
2022/05/17 22:31:13;;;;;;;3.20;1.40;;;;;;;8.21;46.11;100703.69;214799;1274;139514;-63
2022/05/17 22:36:16;;;;;;;7.70;1.50;;;;;;;8.09;46.49;100714.32;213486;1275;139442;-63
2022/05/17 22:41:21;;;;;;;2.50;1.60;;;;;;;7.96;47.14;100723.34;213906;1274;139553;-61
2022/05/17 22:51:48;;;;;;;2.20;1.60;;;;;;;7.70;47.64;100739.02;214939;1274;140441;-63
2022/05/17 22:56:51;;;;;;;2.10;1.70;;;;;;;7.60;47.73;100739.64;214041;1274;143335;-62
2022/05/17 23:01:56;;;;;;;2.30;1.40;;;;;;;7.52;48.26;100746.59;213441;1275;139968;-61
2022/05/17 23:07:00;;;;;;;2.30;1.70;;;;;;;7.42;48.73;100746.84;214010;1274;141716;-64
2022/05/17 23:12:04;;;;;;;3.40;1.70;;;;;;;7.27;49.16;100752.34;214425;1274;142311;-60
2022/05/17 23:17:07;;;;;;;3.20;1.10;;;;;;;7.17;49.08;100761.00;214383;1274;140742;-62
2022/05/17 23:22:10;;;;;;;2.20;1.60;;;;;;;7.09;49.39;100766.28;215148;1274;139762;-65
2022/05/17 23:32:38;;;;;;;2.60;1.60;;;;;;;6.85;50.20;100772.94;215855;1274;140358;-61
2022/05/17 23:37:42;;;;;;;1.20;1.20;;;;;;;6.72;50.42;100776.97;214138;1274;139259;-64
2022/05/17 23:42:45;;;;;;;3.20;1.50;;;;;;;6.62;50.94;100783.49;216156;1274;139865;-65
2022/05/17 23:47:48;;;;;;;2.20;1.70;;;;;;;6.54;51.37;100792.41;216056;1274;140214;-63
2022/05/17 23:52:51;;;;;;;3.10;1.50;;;;;;;6.42;51.80;100800.03;215640;1274;140693;-63
2022/05/17 23:57:53;;;;;;;3.40;2.10;;;;;;;6.29;51.83;100805.02;215467;1274;140569;-63
